Time;durP1;ratioP1;P1;durP2;ratioP2;P2;SDS_P1;SDS_P2;PMS_P1;PMS_P2;Temp;Humidity;BMP_temperature;BMP_pressure;BME280_temperature;BME280_humidity;BME280_pressure;Samples;Min_cycle;Max_cycle;Signal;HPM_P1;HPM_P2
2023/10/24 00:00:25;;;;;;;;;;;12.70;88.20;;;;;;5098383;28;19938;-68
2023/10/24 00:02:59;;;;;;;;;;;12.70;88.30;;;;;;5102080;28;19978;-67
2023/10/24 00:05:32;;;;;;;;;;;12.70;88.30;;;;;;5095910;28;19947;-67
2023/10/24 00:08:05;;;;;;;;;;;12.70;88.20;;;;;;5096668;28;20022;-68
2023/10/24 00:10:38;;;;;;;;;;;12.70;88.20;;;;;;5099459;28;19932;-68
2023/10/24 00:13:11;;;;;;;;;;;12.70;88.30;;;;;;5095731;28;19924;-68
2023/10/24 00:15:52;;;;;;;;;;;12.70;88.30;;;;;;5097581;28;19938;-68
2023/10/24 00:18:25;;;;;;;;;;;12.70;88.40;;;;;;5100235;28;19981;-68
2023/10/24 00:20:59;;;;;;;;;;;12.60;88.50;;;;;;5093857;28;19931;-68
2023/10/24 00:23:32;;;;;;;;;;;12.70;88.60;;;;;;5096296;28;20022;-68
2023/10/24 00:26:05;;;;;;;;;;;12.70;88.70;;;;;;5098277;28;19924;-67
2023/10/24 00:28:41;;;;;;;;;;;12.70;88.80;;;;;;5090360;28;19932;-68
2023/10/24 00:31:16;;;;;;;;;;;12.70;88.90;;;;;;5094121;28;19967;-69
2023/10/24 00:33:50;;;;;;;;;;;12.70;89.00;;;;;;5091695;28;19938;-67
2023/10/24 00:36:23;;;;;;;;;;;12.70;89.20;;;;;;5077306;28;19932;-68
2023/10/24 00:38:56;;;;;;;;;;;12.70;89.10;;;;;;5091645;28;19924;-67
2023/10/24 00:41:29;;;;;;;;;;;12.70;89.00;;;;;;5106303;27;20544;-67
2023/10/24 00:44:02;;;;;;;;;;;12.70;89.10;;;;;;5084184;28;19946;-68
2023/10/24 00:46:37;;;;;;;;;;;12.60;89.10;;;;;;5096391;28;20279;-68
2023/10/24 00:49:10;;;;;;;;;;;12.60;89.00;;;;;;5081363;28;19934;-68
2023/10/24 00:51:43;;;;;;;;;;;12.60;88.90;;;;;;5089852;28;20283;-68
2023/10/24 00:54:16;;;;;;;;;;;12.60;88.90;;;;;;5091358;28;19928;-68
2023/10/24 00:56:51;;;;;;;;;;;12.60;88.80;;;;;;5109697;27;19943;-67
2023/10/24 00:59:24;;;;;;;;;;;12.60;88.80;;;;;;5093753;28;19965;-68
2023/10/24 01:01:59;;;;;;;;;;;12.60;88.70;;;;;;5107519;27;20293;-67
2023/10/24 01:04:32;;;;;;;;;;;12.60;88.90;;;;;;5092999;28;19955;-69
2023/10/24 01:07:06;;;;;;;;;;;12.60;89.00;;;;;;5091863;28;19959;-67
2023/10/24 01:09:39;;;;;;;;;;;12.60;89.20;;;;;;5088581;28;19924;-68
2023/10/24 01:12:12;;;;;;;;;;;12.60;89.30;;;;;;5104790;27;19932;-68
2023/10/24 01:14:45;;;;;;;;;;;12.60;89.40;;;;;;5094225;28;20443;-66
2023/10/24 01:17:19;;;;;;;;;;;12.60;89.40;;;;;;5093820;28;19924;-69
2023/10/24 01:19:53;;;;;;;;;;;12.60;89.40;;;;;;5088893;28;19928;-66
2023/10/24 01:22:28;;;;;;;;;;;12.60;89.30;;;;;;5091431;28;19942;-67
2023/10/24 01:25:02;;;;;;;;;;;12.60;89.50;;;;;;5096281;28;19934;-68
2023/10/24 01:27:35;;;;;;;;;;;12.60;89.50;;;;;;5089020;28;19970;-67
2023/10/24 01:30:09;;;;;;;;;;;12.60;89.60;;;;;;5085527;28;19993;-67
2023/10/24 01:32:42;;;;;;;;;;;12.60;89.60;;;;;;5090157;28;19924;-66
2023/10/24 01:35:15;;;;;;;;;;;12.60;89.60;;;;;;5096165;28;19924;-68
2023/10/24 01:37:50;;;;;;;;;;;12.60;89.60;;;;;;5091874;28;19928;-67
2023/10/24 01:40:23;;;;;;;;;;;12.60;89.50;;;;;;5087705;28;20094;-68
2023/10/24 01:42:56;;;;;;;;;;;12.60;89.60;;;;;;5095962;28;19928;-67
2023/10/24 01:45:29;;;;;;;;;;;12.60;89.80;;;;;;5091657;28;21050;-66
2023/10/24 01:48:02;;;;;;;;;;;12.60;89.80;;;;;;5099991;28;19957;-65
2023/10/24 01:50:30;;;;;;;;;;;12.60;89.80;;;;;;5106488;28;20390;-65
2023/10/24 01:53:05;;;;;;;;;;;12.70;89.70;;;;;;5103523;28;19935;-65
2023/10/24 01:55:31;;;;;;;;;;;12.70;89.70;;;;;;5093764;28;21932;-65
2023/10/24 01:58:05;;;;;;;;;;;12.70;89.60;;;;;;5097820;28;19928;-65
2023/10/24 02:00:38;;;;;;;;;;;12.70;89.70;;;;;;5087349;28;19935;-65
2023/10/24 02:03:05;;;;;;;;;;;12.60;89.80;;;;;;5083036;28;19973;-65
2023/10/24 02:05:40;;;;;;;;;;;12.60;89.90;;;;;;5090917;28;19924;-65
2023/10/24 02:08:14;;;;;;;;;;;12.60;89.90;;;;;;5087517;28;20019;-66
2023/10/24 02:10:50;;;;;;;;;;;12.60;90.00;;;;;;5094645;28;19928;-66
2023/10/24 02:13:23;;;;;;;;;;;12.70;90.00;;;;;;5091665;28;19928;-66
2023/10/24 02:16:03;;;;;;;;;;;12.70;90.10;;;;;;5089636;28;19939;-66
2023/10/24 02:18:36;;;;;;;;;;;12.60;90.20;;;;;;5089958;28;19960;-67
2023/10/24 02:21:11;;;;;;;;;;;12.60;90.20;;;;;;5093178;28;20778;-66
2023/10/24 02:23:45;;;;;;;;;;;12.60;90.20;;;;;;5096191;28;19935;-66
2023/10/24 02:26:18;;;;;;;;;;;12.60;90.30;;;;;;5088724;28;19938;-65
2023/10/24 02:28:52;;;;;;;;;;;12.70;90.30;;;;;;5089325;28;20052;-66
2023/10/24 02:31:25;;;;;;;;;;;12.60;90.20;;;;;;5109863;27;19928;-65
2023/10/24 02:33:58;;;;;;;;;;;12.60;90.30;;;;;;5097263;27;19928;-65
2023/10/24 02:36:31;;;;;;;;;;;12.60;90.50;;;;;;5096659;28;19924;-66
2023/10/24 02:39:06;;;;;;;;;;;12.60;90.50;;;;;;5094071;27;20283;-64
2023/10/24 02:41:39;;;;;;;;;;;12.60;90.50;;;;;;5093651;28;19969;-66
2023/10/24 02:44:12;;;;;;;;;;;12.60;90.50;;;;;;5094043;27;19923;-65
2023/10/24 02:46:45;;;;;;;;;;;12.70;90.40;;;;;;5093221;28;20679;-66
2023/10/24 02:49:18;;;;;;;;;;;12.70;90.50;;;;;;5090975;28;20220;-65
2023/10/24 02:51:51;;;;;;;;;;;12.70;90.50;;;;;;5099001;28;19931;-65
2023/10/24 02:54:26;;;;;;;;;;;12.60;90.70;;;;;;5091758;28;19932;-66
2023/10/24 02:56:59;;;;;;;;;;;12.60;90.60;;;;;;5100914;28;20013;-66
2023/10/24 02:59:32;;;;;;;;;;;12.70;90.50;;;;;;5098058;27;19932;-68
2023/10/24 03:02:05;;;;;;;;;;;12.70;90.50;;;;;;5099755;28;19928;-67
2023/10/24 03:04:38;;;;;;;;;;;12.60;90.50;;;;;;5093887;28;19934;-67
2023/10/24 03:07:14;;;;;;;;;;;12.60;90.50;;;;;;5093324;28;19924;-67
2023/10/24 03:09:49;;;;;;;;;;;12.60;90.60;;;;;;5093989;28;19936;-68
2023/10/24 03:12:22;;;;;;;;;;;12.60;90.50;;;;;;5097704;27;19932;-68
2023/10/24 03:14:56;;;;;;;;;;;12.60;90.50;;;;;;5091414;28;19934;-67
2023/10/24 03:17:36;;;;;;;;;;;12.60;90.50;;;;;;5096386;28;19980;-66
2023/10/24 03:20:11;;;;;;;;;;;12.60;90.50;;;;;;5090750;28;20375;-67
2023/10/24 03:22:44;;;;;;;;;;;12.60;90.50;;;;;;5096767;28;19973;-67
2023/10/24 03:25:12;;;;;;;;;;;12.60;90.50;;;;;;5100289;28;19928;-67
2023/10/24 03:27:45;;;;;;;;;;;12.60;90.50;;;;;;5091568;28;19924;-66
2023/10/24 03:30:18;;;;;;;;;;;12.50;90.60;;;;;;5090664;28;19928;-68
2023/10/24 03:32:51;;;;;;;;;;;12.60;90.60;;;;;;5095742;28;19932;-68
2023/10/24 03:35:18;;;;;;;;;;;12.50;90.60;;;;;;5094898;27;19927;-66
2023/10/24 03:37:51;;;;;;;;;;;12.50;90.60;;;;;;5098980;28;19946;-66
2023/10/24 03:40:26;;;;;;;;;;;12.50;90.70;;;;;;5087268;28;19929;-67
2023/10/24 03:42:59;;;;;;;;;;;12.50;90.70;;;;;;5096497;28;19932;-68
2023/10/24 03:45:32;;;;;;;;;;;12.50;90.80;;;;;;5105865;27;20302;-66
2023/10/24 03:48:05;;;;;;;;;;;12.50;90.80;;;;;;5087848;28;19928;-68
2023/10/24 03:50:39;;;;;;;;;;;12.50;90.80;;;;;;5096173;28;19928;-68
2023/10/24 03:53:12;;;;;;;;;;;12.50;90.80;;;;;;5096193;28;21511;-69
2023/10/24 03:55:40;;;;;;;;;;;12.60;90.80;;;;;;5087859;28;19928;-67
2023/10/24 03:58:13;;;;;;;;;;;12.50;90.70;;;;;;5094964;28;19959;-67
2023/10/24 04:00:46;;;;;;;;;;;12.60;90.80;;;;;;5096664;28;19932;-67
2023/10/24 04:03:20;;;;;;;;;;;12.60;90.90;;;;;;5093791;28;20200;-67
2023/10/24 04:05:53;;;;;;;;;;;12.50;90.90;;;;;;5085071;28;19927;-67
2023/10/24 04:08:26;;;;;;;;;;;12.50;90.90;;;;;;5097726;28;19931;-68
2023/10/24 04:11:01;;;;;;;;;;;12.50;91.00;;;;;;5094339;28;19928;-67
2023/10/24 04:13:34;;;;;;;;;;;12.60;90.80;;;;;;5092572;28;19932;-66
2023/10/24 04:16:07;;;;;;;;;;;12.60;90.90;;;;;;5106635;27;20471;-67
2023/10/24 04:18:40;;;;;;;;;;;12.60;91.00;;;;;;5095382;27;19928;-66
2023/10/24 04:21:14;;;;;;;;;;;12.60;91.10;;;;;;5093976;28;19932;-69
2023/10/24 04:23:47;;;;;;;;;;;12.60;91.10;;;;;;5096920;27;19923;-67
2023/10/24 04:26:22;;;;;;;;;;;12.60;91.00;;;;;;5095056;28;19936;-67
2023/10/24 04:28:55;;;;;;;;;;;12.60;91.00;;;;;;5091212;28;20431;-68
2023/10/24 04:31:28;;;;;;;;;;;12.60;91.00;;;;;;5092215;28;19932;-66
2023/10/24 04:34:04;;;;;;;;;;;12.60;90.90;;;;;;5089593;28;20333;-68
2023/10/24 04:36:38;;;;;;;;;;;12.60;90.90;;;;;;5096332;28;19981;-66
2023/10/24 04:39:11;;;;;;;;;;;12.60;90.90;;;;;;5090120;28;19923;-69
2023/10/24 04:41:47;;;;;;;;;;;12.60;91.00;;;;;;5093916;28;20388;-67
2023/10/24 04:44:20;;;;;;;;;;;12.60;91.10;;;;;;5093527;28;20408;-68
2023/10/24 04:46:53;;;;;;;;;;;12.60;91.10;;;;;;5091815;28;19932;-67
2023/10/24 04:49:26;;;;;;;;;;;12.60;91.20;;;;;;5094820;28;19932;-67
2023/10/24 04:51:59;;;;;;;;;;;12.60;91.20;;;;;;5094627;28;19925;-66
2023/10/24 04:54:32;;;;;;;;;;;12.60;91.20;;;;;;5091615;28;19928;-68
2023/10/24 04:57:07;;;;;;;;;;;12.60;91.00;;;;;;5094814;28;20445;-66
2023/10/24 04:59:40;;;;;;;;;;;12.60;91.00;;;;;;5094026;28;19930;-67
2023/10/24 05:02:13;;;;;;;;;;;12.60;91.00;;;;;;5091921;28;19963;-68
2023/10/24 05:04:40;;;;;;;;;;;12.60;91.00;;;;;;5093792;28;19927;-66
2023/10/24 05:07:14;;;;;;;;;;;12.60;91.00;;;;;;5094382;27;19932;-65
2023/10/24 05:09:47;;;;;;;;;;;12.60;91.10;;;;;;5092723;28;20018;-67
2023/10/24 05:12:22;;;;;;;;;;;12.60;91.10;;;;;;5096536;28;19931;-66
2023/10/24 05:14:55;;;;;;;;;;;12.60;91.10;;;;;;5105515;27;19923;-65
2023/10/24 05:17:30;;;;;;;;;;;12.60;91.20;;;;;;5090900;27;19940;-62
2023/10/24 05:20:07;;;;;;;;;;;12.60;91.20;;;;;;5096185;28;20019;-62
2023/10/24 05:22:40;;;;;;;;;;;12.60;91.20;;;;;;5097524;28;19931;-61
2023/10/24 05:25:13;;;;;;;;;;;12.60;91.30;;;;;;5097485;28;20278;-61
2023/10/24 05:27:48;;;;;;;;;;;12.60;91.30;;;;;;5093396;27;19930;-60
2023/10/24 05:30:21;;;;;;;;;;;12.60;91.20;;;;;;5080034;28;20263;-60
2023/10/24 05:32:55;;;;;;;;;;;12.60;91.20;;;;;;5106328;27;20401;-62
2023/10/24 05:35:28;;;;;;;;;;;12.60;91.20;;;;;;5095648;28;19963;-61
2023/10/24 05:38:01;;;;;;;;;;;12.60;91.20;;;;;;5093379;28;19936;-62
2023/10/24 05:40:35;;;;;;;;;;;12.60;91.10;;;;;;5095580;28;19928;-62
2023/10/24 05:43:09;;;;;;;;;;;12.50;91.10;;;;;;5098239;28;19936;-60
2023/10/24 05:45:42;;;;;;;;;;;12.60;91.00;;;;;;5091932;28;19923;-60
2023/10/24 05:48:15;;;;;;;;;;;12.60;91.10;;;;;;5097061;28;19930;-60
2023/10/24 05:50:49;;;;;;;;;;;12.60;91.10;;;;;;5095190;28;19960;-62
2023/10/24 05:53:22;;;;;;;;;;;12.60;91.10;;;;;;5093738;28;19992;-61
2023/10/24 05:55:55;;;;;;;;;;;12.60;91.00;;;;;;5095900;28;19993;-63
2023/10/24 05:58:30;;;;;;;;;;;12.60;91.10;;;;;;5095363;28;19939;-61
2023/10/24 06:01:03;;;;;;;;;;;12.60;91.00;;;;;;5095312;28;19935;-60
2023/10/24 06:03:36;;;;;;;;;;;12.60;91.00;;;;;;5092026;28;19924;-61
2023/10/24 06:06:09;;;;;;;;;;;12.50;91.20;;;;;;5096786;28;19938;-60
2023/10/24 06:08:43;;;;;;;;;;;12.60;91.20;;;;;;5091408;27;19924;-61
2023/10/24 06:11:16;;;;;;;;;;;12.50;91.20;;;;;;5095696;28;19928;-61
2023/10/24 06:13:51;;;;;;;;;;;12.50;91.10;;;;;;5096491;27;20035;-62
2023/10/24 06:16:24;;;;;;;;;;;12.50;91.20;;;;;;5100811;28;19963;-61
2023/10/24 06:18:57;;;;;;;;;;;12.50;91.20;;;;;;5098464;28;19924;-60
2023/10/24 06:21:30;;;;;;;;;;;12.50;91.30;;;;;;5093451;28;19931;-61
2023/10/24 06:24:04;;;;;;;;;;;12.40;91.40;;;;;;5097474;28;19928;-62
2023/10/24 06:26:30;;;;;;;;;;;12.50;91.40;;;;;;5099994;28;19941;-70
2023/10/24 06:29:05;;;;;;;;;;;12.50;91.30;;;;;;5098808;28;19979;-70
2023/10/24 06:31:38;;;;;;;;;;;12.50;91.20;;;;;;5101605;28;19928;-71
2023/10/24 06:34:07;;;;;;;;;;;12.50;91.20;;;;;;5095795;28;19939;-70
2023/10/24 06:36:53;;;;;;;;;;;12.50;91.20;;;;;;5091621;27;19924;-71
2023/10/24 06:39:26;;;;;;;;;;;12.50;91.20;;;;;;5097809;28;19928;-71
2023/10/24 06:41:59;;;;;;;;;;;12.60;91.10;;;;;;5095894;28;19927;-70
2023/10/24 06:44:34;;;;;;;;;;;12.50;91.00;;;;;;5101640;28;19932;-69
2023/10/24 06:49:57;;;;;;;;;;;12.60;91.00;;;;;;5095626;27;19924;-70
2023/10/24 06:52:31;;;;;;;;;;;12.60;91.10;;;;;;5101947;28;20007;-71
2023/10/24 06:55:05;;;;;;;;;;;12.50;91.20;;;;;;5096364;27;19930;-71
2023/10/24 06:57:38;;;;;;;;;;;12.50;91.10;;;;;;5101937;28;19943;-71
2023/10/24 07:00:14;;;;;;;;;;;12.50;91.30;;;;;;5098981;28;19927;-70
2023/10/24 07:02:48;;;;;;;;;;;12.50;91.30;;;;;;5093151;28;19932;-71
2023/10/24 07:05:28;;;;;;;;;;;12.60;91.30;;;;;;5097824;28;20264;-69
2023/10/24 07:08:00;;;;;;;;;;;12.50;91.40;;;;;;5099356;28;19924;-70
2023/10/24 07:10:47;;;;;;;;;;;12.50;91.40;;;;;;5097190;28;19924;-71
2023/10/24 07:13:20;;;;;;;;;;;12.50;91.50;;;;;;5098050;28;19941;-69
2023/10/24 07:15:55;;;;;;;;;;;12.50;91.50;;;;;;5094961;28;20022;-71
2023/10/24 07:18:30;;;;;;;;;;;12.50;91.60;;;;;;5098611;27;19924;-70
2023/10/24 07:21:03;;;;;;;;;;;12.50;91.50;;;;;;5097981;28;19928;-69
2023/10/24 07:23:36;;;;;;;;;;;12.60;91.60;;;;;;5097784;28;20016;-71
2023/10/24 07:26:10;;;;;;;;;;;12.50;91.60;;;;;;5098517;27;19924;-70
2023/10/24 07:28:51;;;;;;;;;;;12.60;91.50;;;;;;5097625;28;19934;-71
2023/10/24 07:31:26;;;;;;;;;;;12.60;91.50;;;;;;5094530;28;19932;-69
2023/10/24 07:34:00;;;;;;;;;;;12.60;91.50;;;;;;5098211;28;20011;-69
2023/10/24 07:36:35;;;;;;;;;;;12.60;91.50;;;;;;5095766;28;20428;-68
2023/10/24 07:39:07;;;;;;;;;;;12.60;91.40;;;;;;5099513;28;19931;-67
2023/10/24 07:41:40;;;;;;;;;;;12.60;91.40;;;;;;5095184;28;20282;-69
2023/10/24 07:44:13;;;;;;;;;;;12.60;91.60;;;;;;5093709;28;19924;-68
2023/10/24 07:46:48;;;;;;;;;;;12.60;91.50;;;;;;5094207;28;19936;-69
2023/10/24 07:49:21;;;;;;;;;;;12.60;91.40;;;;;;5096237;28;19928;-69
2023/10/24 07:51:55;;;;;;;;;;;12.60;91.50;;;;;;5097712;28;19949;-69
2023/10/24 07:54:29;;;;;;;;;;;12.60;91.40;;;;;;5095133;28;19932;-70
2023/10/24 07:57:02;;;;;;;;;;;12.60;91.40;;;;;;5095790;27;19932;-71
2023/10/24 07:59:35;;;;;;;;;;;12.60;91.50;;;;;;5095365;28;19924;-70
2023/10/24 08:02:10;;;;;;;;;;;12.60;91.40;;;;;;5093696;28;19925;-71
2023/10/24 08:04:43;;;;;;;;;;;12.70;91.50;;;;;;5093639;28;19984;-70
2023/10/24 08:07:16;;;;;;;;;;;12.70;91.30;;;;;;5094858;28;20441;-71
2023/10/24 08:09:49;;;;;;;;;;;12.70;91.40;;;;;;5095103;28;19924;-69
2023/10/24 08:12:22;;;;;;;;;;;12.80;91.40;;;;;;5092503;28;19932;-70
2023/10/24 08:14:56;;;;;;;;;;;12.80;91.40;;;;;;5096867;27;19955;-71
2023/10/24 08:17:30;;;;;;;;;;;12.80;91.30;;;;;;5096069;28;19936;-69
2023/10/24 08:20:04;;;;;;;;;;;12.80;91.30;;;;;;5095976;27;19979;-69
2023/10/24 08:22:36;;;;;;;;;;;12.80;91.30;;;;;;5094144;28;19932;-69
2023/10/24 08:25:09;;;;;;;;;;;12.90;91.30;;;;;;5094552;28;19932;-70
2023/10/24 08:27:44;;;;;;;;;;;12.90;91.20;;;;;;5095866;28;19978;-71
2023/10/24 08:30:18;;;;;;;;;;;12.90;91.20;;;;;;5097124;28;19958;-71
2023/10/24 08:33:20;;;;;;;;;;;12.90;91.30;;;;;;5095281;28;20896;-70
2023/10/24 08:36:00;;;;;;;;;;;12.90;91.40;;;;;;5095838;28;19938;-67
2023/10/24 08:38:33;;;;;;;;;;;12.90;91.50;;;;;;5097993;28;20325;-69
2023/10/24 08:41:06;;;;;;;;;;;12.90;91.40;;;;;;5094318;28;19928;-68
2023/10/24 08:43:40;;;;;;;;;;;12.90;91.60;;;;;;5096803;28;19932;-67
2023/10/24 08:46:07;;;;;;;;;;;12.90;91.50;;;;;;5089310;28;19952;-69
2023/10/24 08:48:42;;;;;;;;;;;12.90;91.60;;;;;;5093012;28;19931;-70
2023/10/24 08:51:08;;;;;;;;;;;12.90;91.60;;;;;;5093874;28;19930;-69
2023/10/24 08:53:41;;;;;;;;;;;12.90;91.60;;;;;;5095619;28;19931;-71
2023/10/24 08:56:21;;;;;;;;;;;12.90;91.60;;;;;;5092576;28;19933;-68
2023/10/24 08:58:58;;;;;;;;;;;13.00;91.80;;;;;;5096916;28;20367;-70
2023/10/24 09:01:33;;;;;;;;;;;13.00;91.70;;;;;;5094001;28;20022;-70
2023/10/24 09:04:01;;;;;;;;;;;13.00;91.60;;;;;;5099993;28;20020;-69
2023/10/24 09:06:35;;;;;;;;;;;13.00;91.70;;;;;;5092518;28;19938;-70
2023/10/24 09:09:07;;;;;;;;;;;13.10;91.70;;;;;;5095475;28;19969;-70
2023/10/24 09:12:03;;;;;;;;;;;13.10;91.60;;;;;;5097965;28;20889;-70
2023/10/24 09:14:36;;;;;;;;;;;13.10;91.60;;;;;;5094558;27;19935;-69
2023/10/24 09:17:16;;;;;;;;;;;13.10;91.70;;;;;;5100526;28;19946;-70
2023/10/24 09:19:51;;;;;;;;;;;13.10;91.60;;;;;;5099757;28;20409;-69
2023/10/24 09:22:27;;;;;;;;;;;13.20;91.70;;;;;;5100424;28;19930;-70
2023/10/24 09:25:02;;;;;;;;;;;13.10;91.70;;;;;;5098095;28;19928;-70
2023/10/24 09:27:29;;;;;;;;;;;13.20;91.70;;;;;;5097816;28;19960;-70
2023/10/24 09:30:08;;;;;;;;;;;13.10;91.90;;;;;;5099225;28;20298;-70
2023/10/24 09:32:42;;;;;;;;;;;13.20;91.60;;;;;;5099175;28;19927;-68
2023/10/24 09:35:20;;;;;;;;;;;13.20;91.80;;;;;;5097966;28;19992;-68
2023/10/24 09:37:54;;;;;;;;;;;13.20;91.90;;;;;;5097625;28;19934;-69
2023/10/24 09:40:34;;;;;;;;;;;13.20;91.80;;;;;;5097529;28;19959;-70
2023/10/24 09:43:11;;;;;;;;;;;13.20;91.90;;;;;;5099290;28;19928;-69
2023/10/24 09:45:45;;;;;;;;;;;13.20;91.90;;;;;;5099760;28;20310;-70
2023/10/24 09:48:12;;;;;;;;;;;13.20;91.90;;;;;;5098090;28;19935;-69
2023/10/24 09:50:47;;;;;;;;;;;13.20;91.80;;;;;;5096806;28;20391;-69
2023/10/24 09:53:21;;;;;;;;;;;13.20;91.70;;;;;;5097887;28;20016;-68
2023/10/24 09:55:56;;;;;;;;;;;13.20;91.90;;;;;;5100065;28;19924;-75
2023/10/24 09:58:30;;;;;;;;;;;13.30;91.90;;;;;;5097960;28;19931;-74
2023/10/24 10:01:04;;;;;;;;;;;13.30;91.80;;;;;;5097880;28;20286;-72
2023/10/24 10:03:37;;;;;;;;;;;13.30;91.80;;;;;;5100632;28;20287;-73
2023/10/24 10:06:13;;;;;;;;;;;13.30;91.80;;;;;;5094499;28;19928;-73
2023/10/24 10:08:50;;;;;;;;;;;13.30;91.70;;;;;;5097652;28;19924;-73
2023/10/24 10:11:23;;;;;;;;;;;13.30;91.80;;;;;;5083857;28;19927;-72
2023/10/24 10:14:04;;;;;;;;;;;13.30;91.80;;;;;;5095477;28;19934;-72
2023/10/24 10:16:44;;;;;;;;;;;13.30;91.80;;;;;;5097777;28;19932;-72
2023/10/24 10:19:29;;;;;;;;;;;13.30;91.70;;;;;;5098368;28;19928;-72
2023/10/24 10:22:14;;;;;;;;;;;13.30;91.70;;;;;;5097714;28;20407;-73
2023/10/24 10:24:58;;;;;;;;;;;13.40;91.70;;;;;;5095830;28;19931;-74
2023/10/24 10:27:33;;;;;;;;;;;13.40;91.70;;;;;;5099337;28;19953;-73
2023/10/24 10:30:13;;;;;;;;;;;13.40;91.70;;;;;;5100149;28;19932;-73
2023/10/24 10:32:49;;;;;;;;;;;13.50;91.70;;;;;;5098025;27;19930;-75
2023/10/24 10:35:22;;;;;;;;;;;13.50;91.80;;;;;;5100004;28;19928;-73
2023/10/24 10:38:04;;;;;;;;;;;13.50;91.50;;;;;;5083718;28;20279;-74
2023/10/24 10:40:38;;;;;;;;;;;13.40;91.50;;;;;;5099597;28;19924;-73
2023/10/24 10:43:29;;;;;;;;;;;13.40;91.50;;;;;;5097304;28;19924;-72
2023/10/24 10:46:19;;;;;;;;;;;13.50;91.60;;;;;;5098520;28;19924;-74
2023/10/24 10:48:53;;;;;;;;;;;13.40;91.50;;;;;;5098980;28;19930;-74
2023/10/24 10:51:29;;;;;;;;;;;13.40;91.50;;;;;;5101855;28;19929;-73
2023/10/24 10:54:09;;;;;;;;;;;13.40;91.60;;;;;;5102489;28;20027;-73
2023/10/24 10:56:41;;;;;;;;;;;13.40;91.60;;;;;;5101498;28;19978;-73
2023/10/24 10:59:21;;;;;;;;;;;13.40;91.70;;;;;;5102758;27;20022;-74
2023/10/24 11:01:59;;;;;;;;;;;13.40;91.60;;;;;;5099662;28;20371;-73
2023/10/24 11:04:31;;;;;;;;;;;13.40;91.70;;;;;;5101170;28;19939;-74
2023/10/24 11:07:06;;;;;;;;;;;13.40;91.60;;;;;;5101972;28;20014;-61
2023/10/24 11:09:41;;;;;;;;;;;13.40;91.70;;;;;;5096635;28;19928;-62
2023/10/24 11:12:25;;;;;;;;;;;13.40;91.70;;;;;;5102621;28;19928;-62
2023/10/24 11:15:17;;;;;;;;;;;13.40;91.70;;;;;;5102184;27;19932;-61
2023/10/24 11:17:51;;;;;;;;;;;13.40;91.70;;;;;;5116480;27;19924;-61
2023/10/24 11:20:25;;;;;;;;;;;13.40;91.70;;;;;;5099819;28;19931;-61
2023/10/24 11:22:57;;;;;;;;;;;13.40;91.80;;;;;;5101340;28;20026;-61
2023/10/24 11:25:32;;;;;;;;;;;13.40;91.80;;;;;;5100090;28;19931;-60
2023/10/24 11:28:07;;;;;;;;;;;13.40;91.70;;;;;;5102226;28;19924;-61
2023/10/24 11:30:40;;;;;;;;;;;13.40;91.60;;;;;;5098982;28;19924;-62
2023/10/24 11:33:14;;;;;;;;;;;13.50;91.50;;;;;;5101616;28;19951;-61
2023/10/24 11:35:47;;;;;;;;;;;13.50;91.70;;;;;;5099012;28;19974;-61
2023/10/24 11:38:19;;;;;;;;;;;13.60;91.70;;;;;;5099802;28;19924;-60
2023/10/24 11:40:54;;;;;;;;;;;13.60;91.60;;;;;;5100979;27;20364;-60
2023/10/24 11:43:29;;;;;;;;;;;13.60;91.60;;;;;;5096528;28;19924;-61
2023/10/24 11:46:02;;;;;;;;;;;13.60;91.50;;;;;;5095862;28;19928;-59
2023/10/24 11:48:35;;;;;;;;;;;13.60;91.40;;;;;;5096430;28;19935;-61
2023/10/24 11:51:09;;;;;;;;;;;13.60;91.50;;;;;;5100227;27;20022;-62
2023/10/24 11:53:42;;;;;;;;;;;13.60;91.50;;;;;;5101103;28;19928;-61
2023/10/24 11:56:17;;;;;;;;;;;13.60;91.60;;;;;;5100999;28;19931;-62
2023/10/24 11:58:57;;;;;;;;;;;13.70;91.50;;;;;;5102603;28;19932;-61
2023/10/24 12:01:31;;;;;;;;;;;13.60;91.40;;;;;;5093635;28;20009;-62
2023/10/24 12:04:05;;;;;;;;;;;13.70;91.50;;;;;;5100509;28;19932;-62
2023/10/24 12:06:38;;;;;;;;;;;13.60;91.60;;;;;;5099481;28;20421;-61
2023/10/24 12:09:05;;;;;;;;;;;13.60;91.40;;;;;;5100454;28;20065;-60
2023/10/24 12:11:39;;;;;;;;;;;13.60;91.50;;;;;;5095516;28;19959;-60
2023/10/24 12:14:12;;;;;;;;;;;13.60;91.40;;;;;;5083071;28;20294;-59
2023/10/24 12:16:47;;;;;;;;;;;13.60;91.20;;;;;;5094551;27;19959;-65
2023/10/24 12:19:20;;;;;;;;;;;13.60;91.30;;;;;;5098875;27;20367;-65
2023/10/24 12:21:57;;;;;;;;;;;13.60;91.40;;;;;;5098382;28;19954;-65
2023/10/24 12:24:30;;;;;;;;;;;13.60;91.50;;;;;;5089171;28;19928;-66
2023/10/24 12:27:04;;;;;;;;;;;13.60;91.30;;;;;;5094690;28;19928;-65
2023/10/24 12:29:37;;;;;;;;;;;13.60;91.30;;;;;;5095200;28;19928;-65
2023/10/24 12:32:11;;;;;;;;;;;13.60;91.40;;;;;;5087995;28;20010;-66
2023/10/24 12:34:44;;;;;;;;;;;13.60;91.40;;;;;;5095092;28;19931;-66
2023/10/24 12:37:16;;;;;;;;;;;13.60;91.40;;;;;;5100639;28;19924;-66
2023/10/24 12:39:51;;;;;;;;;;;13.60;91.50;;;;;;5097747;28;19932;-66
2023/10/24 12:42:26;;;;;;;;;;;13.60;91.40;;;;;;5099652;27;19928;-66
2023/10/24 12:44:59;;;;;;;;;;;13.60;91.50;;;;;;5098613;28;19928;-67
2023/10/24 12:47:33;;;;;;;;;;;13.70;91.40;;;;;;5099543;27;19927;-66
2023/10/24 12:50:06;;;;;;;;;;;13.70;91.50;;;;;;5099823;28;19938;-65
2023/10/24 12:52:40;;;;;;;;;;;13.70;91.40;;;;;;5089378;28;19932;-66
2023/10/24 12:55:13;;;;;;;;;;;13.70;91.50;;;;;;5091767;27;19928;-66
2023/10/24 12:57:47;;;;;;;;;;;13.70;91.50;;;;;;5091559;28;20373;-66
2023/10/24 13:00:21;;;;;;;;;;;13.60;91.50;;;;;;5092535;28;19928;-66
2023/10/24 13:02:54;;;;;;;;;;;13.60;91.60;;;;;;5096151;28;19935;-68
2023/10/24 13:05:28;;;;;;;;;;;13.70;91.50;;;;;;5087398;28;19939;-65
2023/10/24 13:08:00;;;;;;;;;;;13.70;91.50;;;;;;5098180;28;19924;-66
2023/10/24 13:10:27;;;;;;;;;;;13.60;91.50;;;;;;5098514;28;19928;-66
2023/10/24 13:13:02;;;;;;;;;;;13.60;91.50;;;;;;5099263;28;19964;-68
2023/10/24 13:15:36;;;;;;;;;;;13.60;91.30;;;;;;5100116;28;20386;-65
2023/10/24 13:18:09;;;;;;;;;;;13.60;91.60;;;;;;5099276;28;19928;-66
2023/10/24 13:20:35;;;;;;;;;;;13.60;91.60;;;;;;5098910;28;20291;-66
2023/10/24 13:23:08;;;;;;;;;;;13.60;91.40;;;;;;5100050;28;20010;-66
2023/10/24 13:25:35;;;;;;;;;;;13.60;91.30;;;;;;5098936;28;20882;-61
2023/10/24 13:28:10;;;;;;;;;;;13.70;91.50;;;;;;5100173;28;20025;-62
2023/10/24 13:30:44;;;;;;;;;;;13.70;91.50;;;;;;5099934;28;20378;-60
2023/10/24 13:33:11;;;;;;;;;;;13.70;91.50;;;;;;5100639;28;19969;-62
2023/10/24 13:35:45;;;;;;;;;;;13.70;91.40;;;;;;5098442;28;19927;-64
2023/10/24 13:38:20;;;;;;;;;;;13.70;91.30;;;;;;5099956;28;19923;-62
2023/10/24 13:40:52;;;;;;;;;;;13.70;91.30;;;;;;5090050;28;20290;-61
2023/10/24 13:43:27;;;;;;;;;;;13.70;91.30;;;;;;5098628;28;19970;-61
2023/10/24 13:46:01;;;;;;;;;;;13.70;91.30;;;;;;5099481;28;20437;-61
2023/10/24 13:48:34;;;;;;;;;;;13.70;91.40;;;;;;5098337;28;20027;-61
2023/10/24 13:51:07;;;;;;;;;;;13.70;91.40;;;;;;5099817;28;19924;-60
2023/10/24 13:53:40;;;;;;;;;;;13.70;91.40;;;;;;5099440;28;19931;-60
2023/10/24 13:56:13;;;;;;;;;;;13.70;91.30;;;;;;5097896;28;19931;-60
2023/10/24 13:58:47;;;;;;;;;;;13.80;91.40;;;;;;5095408;28;19927;-62
2023/10/24 14:01:20;;;;;;;;;;;13.90;91.30;;;;;;5099057;28;19928;-62
2023/10/24 14:03:54;;;;;;;;;;;13.90;91.20;;;;;;5099545;28;19934;-61
2023/10/24 14:06:27;;;;;;;;;;;14.00;91.20;;;;;;5098156;28;19928;-60
2023/10/24 14:09:00;;;;;;;;;;;14.00;91.20;;;;;;5099229;28;20516;-60
2023/10/24 14:11:33;;;;;;;;;;;13.90;91.10;;;;;;5099430;28;19931;-62
2023/10/24 14:14:08;;;;;;;;;;;13.90;91.20;;;;;;5098706;28;19934;-60
2023/10/24 14:16:48;;;;;;;;;;;13.90;91.10;;;;;;5098534;28;20399;-62
2023/10/24 14:19:22;;;;;;;;;;;13.90;91.10;;;;;;5098342;28;19934;-60
2023/10/24 14:21:57;;;;;;;;;;;13.90;91.20;;;;;;5099042;28;20019;-63
2023/10/24 14:24:31;;;;;;;;;;;13.90;91.30;;;;;;5095909;28;19931;-61
2023/10/24 14:27:04;;;;;;;;;;;13.90;91.20;;;;;;5103639;28;19951;-61
2023/10/24 14:29:38;;;;;;;;;;;13.90;91.30;;;;;;5103380;27;19928;-62
2023/10/24 14:32:12;;;;;;;;;;;13.90;91.20;;;;;;5101831;27;19924;-61
2023/10/24 14:34:51;;;;;;;;;;;14.00;91.20;;;;;;5102564;28;19930;-61
2023/10/24 14:37:25;;;;;;;;;;;14.00;91.20;;;;;;5102563;28;19928;-72
2023/10/24 14:39:58;;;;;;;;;;;14.10;91.00;;;;;;5102939;28;19928;-72
2023/10/24 14:42:31;;;;;;;;;;;14.10;91.10;;;;;;5099900;28;19931;-71
2023/10/24 14:45:05;;;;;;;;;;;14.10;91.10;;;;;;5099010;28;19924;-72
2023/10/24 14:47:39;;;;;;;;;;;14.10;91.10;;;;;;5103321;28;19924;-72
2023/10/24 14:50:13;;;;;;;;;;;14.00;91.00;;;;;;5096690;28;19973;-71
2023/10/24 14:52:46;;;;;;;;;;;13.90;91.20;;;;;;5102425;28;20325;-71
2023/10/24 14:55:19;;;;;;;;;;;13.90;91.30;;;;;;5103235;27;20008;-72
2023/10/24 14:57:53;;;;;;;;;;;13.90;91.30;;;;;;5102080;28;19924;-71